ZTL Weather Bulletin
Prepared:8/26/2016 7:45 PM by: RW valid for 9 hours
FOR ATC PLANNING PURPOSES
Scattered showers and thunderstorms over SE TN and N AL/GA/SC will diminish to isolated showers by 01-03z. Cells will move west to northwest at 10-15kts. Expect VFR conditions outside convection this evening with patchy LIFR/MVFR conditions developing before sunrise, mostly in the N ZTL valleys. Surface winds will be mostly northeast to southeast at 3-8kts and frequently calm, but will be variable and gusty near convection. Flight hazards outside convection: None expected. Altimeters will remain above 29.92ins over all ZTL. Ceilings below 050 are expected near convection and in ZTL areas 1/3/7 after 08z.

Restricted Area Convection: R2102...None. R3002...None. R3004...None.
FTUS31 KATL 270336 AAA
KATL 270333Z 2704/2806 09008KT P6SM FEW060 SCT250
     FM271500 09007KT P6SM SCT045
     FM271900 10010KT P6SM SCT060
     FM280100 08005KT P6SM FEW060
Remark: ISOLATED TS POSSIBLE NW/N/NE/E Til 02Z.
FTUS31 KCLT 262333
KCLT 262331Z 2700/2724 14005KT P6SM SCT060 BKN250
     FM270700 16003KT P6SM FEW250
     FM271400 05004KT P6SM FEW250
     FM271600 10008G15KT P6SM SCT060 PROB30 2721/2724 4SM -TSRA
      BKN050CB

Remark: NONE.
12-18 Hour Forecast Map
Weather Map
Convective Gate Forecast
Convective Gate Forecast
Icing Gate Forecast Icing Gate Forecast


USA.gov is the U.S. government's official web portal to all federal, state and local government web resources and services.